Terminal Aerodrome Forecast
Issued by NWS

Home | Current Version | Previous Version | Text Only | Print | Product List | Glossary On
Versions: 1 2 3 4 5 6 7 8 9 10 11 12 13 14 15 16 17 18 19 20 21 22 23 24 25 26 27 28 29 30 31 32 33 34 35
000
FTAK31 PAFA 251444 AAA
TAFASC
TAF AMD
PASC 251444Z 2515/2612 03009KT 3SM -SHSN BR SCT020 OVC030
     FM251800 03010KT 2SM -SN OVC020
     FM260000 04014KT 1SM -SN BR OVC015=

USA.gov is the U.S. government's official web portal to all federal, state and local government web resources and services.